Time;durP1;ratioP1;P1;durP2;ratioP2;P2;SDS_P1;SDS_P2;PMS_P1;PMS_P2;Temp;Humidity;BMP_temperature;BMP_pressure;BME280_temperature;BME280_humidity;BME280_pressure;Samples;Min_cycle;Max_cycle;Signal;HPM_P1;HPM_P2
2021/03/12 00:01:23;;;;;;;1.37;0.70;;;19.80;42.60;;;;;;5069631;28;20500;-69
2021/03/12 00:03:49;;;;;;;2.10;1.00;;;19.80;42.60;;;;;;5068293;28;20559;-69
2021/03/12 00:06:15;;;;;;;0.63;0.63;;;19.80;42.60;;;;;;5062130;28;21138;-70
2021/03/12 00:08:43;;;;;;;2.13;0.80;;;19.70;42.60;;;;;;5092704;28;20485;-70
2021/03/12 00:11:09;;;;;;;1.43;0.80;;;19.70;42.60;;;;;;5065732;28;20481;-69
2021/03/12 00:13:36;;;;;;;0.70;0.70;;;19.70;42.60;;;;;;5065719;28;20481;-69
2021/03/12 00:16:02;;;;;;;1.53;1.00;;;19.70;42.80;;;;;;5067093;28;20485;-69
2021/03/12 00:18:33;;;;;;;0.90;0.60;;;19.70;42.60;;;;;;5068922;28;20539;-69
2021/03/12 00:21:00;;;;;;;2.77;0.83;;;19.70;42.70;;;;;;5071323;28;20473;-69
2021/03/12 00:23:26;;;;;;;1.67;0.80;;;19.60;42.70;;;;;;5071493;28;20554;-69
2021/03/12 00:25:52;;;;;;;0.70;0.70;;;19.60;42.80;;;;;;5072725;28;20501;-69
2021/03/12 00:28:19;;;;;;;0.77;0.60;;;19.60;43.00;;;;;;5073913;28;21270;-68
2021/03/12 00:30:46;;;;;;;1.00;0.90;;;19.60;42.90;;;;;;5069236;28;20485;-70
2021/03/12 00:33:13;;;;;;;1.57;0.67;;;19.60;42.90;;;;;;5073766;27;20494;-68
2021/03/12 00:35:41;;;;;;;1.13;0.70;;;19.70;42.90;;;;;;5092907;27;20484;-70
2021/03/12 00:38:07;;;;;;;2.50;0.90;;;19.70;42.90;;;;;;5072701;28;21122;-69
2021/03/12 00:40:37;;;;;;;2.57;0.87;;;19.70;43.00;;;;;;5070910;28;21731;-70
2021/03/12 00:43:03;;;;;;;0.70;0.70;;;19.70;42.70;;;;;;5064232;28;20477;-69
2021/03/12 00:45:32;;;;;;;0.73;0.60;;;19.70;42.80;;;;;;5072517;28;20482;-70
2021/03/12 00:47:59;;;;;;;2.83;1.10;;;19.70;42.70;;;;;;5071902;27;20484;-70
2021/03/12 00:50:27;;;;;;;2.10;0.90;;;19.60;42.80;;;;;;5098641;27;20481;-70
2021/03/12 00:52:53;;;;;;;1.90;0.70;;;19.60;42.80;;;;;;5072359;28;20485;-69
2021/03/12 00:55:19;;;;;;;0.87;0.70;;;19.60;42.60;;;;;;5067650;28;20981;-70
2021/03/12 00:57:45;;;;;;;1.83;0.80;;;19.70;42.90;;;;;;5088857;27;20479;-69
2021/03/12 01:00:13;;;;;;;2.23;0.73;;;19.70;42.60;;;;;;5072494;28;20477;-70
2021/03/12 01:02:39;;;;;;;1.00;0.57;;;19.60;42.60;;;;;;5068137;28;20485;-70
2021/03/12 01:05:07;;;;;;;1.43;1.00;;;19.60;42.40;;;;;;5074385;28;20485;-70
2021/03/12 01:07:34;;;;;;;1.27;0.60;;;19.60;42.60;;;;;;5075327;28;20484;-69
2021/03/12 01:10:00;;;;;;;2.13;0.77;;;19.60;42.40;;;;;;5070671;28;20481;-69
2021/03/12 01:12:26;;;;;;;0.60;0.60;;;19.60;42.20;;;;;;5073062;28;20485;-70
2021/03/12 01:14:52;;;;;;;0.70;0.60;;;19.60;42.50;;;;;;5069071;28;20468;-69
2021/03/12 01:17:18;;;;;;;0.73;0.70;;;19.60;42.70;;;;;;5077544;28;20470;-69
2021/03/12 01:19:45;;;;;;;1.00;0.80;;;19.70;42.90;;;;;;5069688;28;20528;-70
2021/03/12 01:22:12;;;;;;;2.60;1.00;;;19.60;42.70;;;;;;5070195;28;20474;-70
2021/03/12 01:24:38;;;;;;;0.60;0.60;;;19.70;42.80;;;;;;5069482;28;20485;-72
2021/03/12 01:27:05;;;;;;;0.87;0.70;;;19.70;42.60;;;;;;5071361;27;21183;-69
2021/03/12 01:29:31;;;;;;;1.03;0.90;;;19.70;42.70;;;;;;5082985;27;20481;-70
2021/03/12 01:31:57;;;;;;;0.87;0.57;;;19.80;42.60;;;;;;5098649;27;20477;-70
2021/03/12 01:34:23;;;;;;;0.50;0.47;;;19.80;42.60;;;;;;5072290;28;20485;-71
2021/03/12 01:36:49;;;;;;;0.60;0.53;;;19.80;42.50;;;;;;5071517;28;20489;-70
2021/03/12 01:39:16;;;;;;;0.70;0.70;;;19.80;42.40;;;;;;5074177;28;20483;-71
2021/03/12 01:41:43;;;;;;;1.77;0.83;;;19.80;42.40;;;;;;5093223;28;20479;-70
2021/03/12 01:44:09;;;;;;;1.00;0.70;;;19.80;43.20;;;;;;5090932;28;20532;-70
2021/03/12 01:46:35;;;;;;;0.70;0.60;;;19.80;42.40;;;;;;5072870;27;21572;-69
2021/03/12 01:49:01;;;;;;;0.60;0.50;;;19.80;42.50;;;;;;5090452;27;20954;-70
2021/03/12 01:51:27;;;;;;;2.60;0.80;;;19.70;42.30;;;;;;5099887;27;21067;-69
2021/03/12 01:53:53;;;;;;;1.23;0.70;;;19.80;42.50;;;;;;5070097;28;21792;-68
2021/03/12 01:56:21;;;;;;;1.17;0.80;;;19.70;42.40;;;;;;5071966;28;20477;-69
2021/03/12 01:58:47;;;;;;;1.40;0.80;;;19.70;42.30;;;;;;5074346;28;21462;-69
2021/03/12 02:01:13;;;;;;;1.87;1.27;;;19.70;42.40;;;;;;5068425;28;20482;-70
2021/03/12 02:03:39;;;;;;;1.83;0.60;;;19.70;42.50;;;;;;5068610;28;20597;-69
2021/03/12 02:06:05;;;;;;;0.53;0.53;;;19.70;43.00;;;;;;5077220;27;20479;-68
2021/03/12 02:08:32;;;;;;;2.43;0.80;;;19.70;42.10;;;;;;5082506;27;20481;-68
2021/03/12 02:10:58;;;;;;;1.07;0.67;;;19.60;42.30;;;;;;5071404;28;20473;-69
2021/03/12 02:13:33;;;;;;;2.20;0.83;;;19.70;42.50;;;;;;5069356;28;20481;-69
2021/03/12 02:16:02;;;;;;;1.33;1.00;;;19.70;42.50;;;;;;5072659;28;20481;-70
2021/03/12 02:18:31;;;;;;;0.80;0.80;;;19.70;42.50;;;;;;5069139;28;20490;-69
2021/03/12 02:20:58;;;;;;;2.80;0.93;;;19.70;42.40;;;;;;5069188;28;20474;-68
2021/03/12 02:23:57;;;;;;;2.00;0.77;;;19.70;42.30;;;;;;5073099;27;21466;-69
2021/03/12 02:26:31;;;;;;;0.53;0.50;;;19.70;42.40;;;;;;5070318;27;20893;-70
2021/03/12 02:28:59;;;;;;;1.33;1.10;;;19.70;42.30;;;;;;5071290;28;20477;-69
2021/03/12 02:31:25;;;;;;;0.93;0.60;;;19.70;42.40;;;;;;5068653;28;20478;-69
2021/03/12 02:33:51;;;;;;;1.23;0.60;;;19.70;42.40;;;;;;5072204;27;20484;-70
2021/03/12 02:36:18;;;;;;;1.27;0.90;;;19.70;42.40;;;;;;5085531;27;20473;-68
2021/03/12 02:38:44;;;;;;;1.97;1.43;;;19.70;42.40;;;;;;5070035;28;20535;-69
2021/03/12 02:41:10;;;;;;;2.03;0.90;;;19.70;42.20;;;;;;5090301;27;20842;-70
2021/03/12 02:43:36;;;;;;;1.63;0.90;;;19.70;42.40;;;;;;5073224;27;20487;-69
2021/03/12 02:46:03;;;;;;;3.53;0.90;;;19.70;42.30;;;;;;5068301;28;20485;-69
2021/03/12 02:48:30;;;;;;;1.33;0.70;;;19.70;42.30;;;;;;5067988;28;20478;-70
2021/03/12 02:50:56;;;;;;;1.07;0.90;;;19.70;42.40;;;;;;5070327;28;21442;-70
2021/03/12 02:53:22;;;;;;;0.77;0.70;;;19.70;42.30;;;;;;5068245;28;20490;-69
2021/03/12 02:55:48;;;;;;;2.87;1.27;;;19.80;42.40;;;;;;5069522;28;20481;-70
2021/03/12 02:58:14;;;;;;;3.40;0.87;;;19.80;42.20;;;;;;5067031;28;20473;-69
2021/03/12 03:00:41;;;;;;;3.63;1.10;;;19.80;42.30;;;;;;5069063;28;20473;-70
2021/03/12 03:03:08;;;;;;;1.00;0.90;;;19.80;42.20;;;;;;5067707;28;20569;-69
2021/03/12 03:05:34;;;;;;;5.40;0.80;;;19.80;42.20;;;;;;5071910;28;20477;-68
2021/03/12 03:08:00;;;;;;;3.20;1.40;;;19.80;42.30;;;;;;5078341;27;20632;-69
2021/03/12 03:10:26;;;;;;;2.40;1.00;;;19.80;42.30;;;;;;5083761;27;20489;-70
2021/03/12 03:12:53;;;;;;;2.13;1.30;;;19.80;42.30;;;;;;5076963;27;20962;-70
2021/03/12 03:15:20;;;;;;;2.80;0.97;;;19.70;42.30;;;;;;5084204;27;20597;-70
2021/03/12 03:17:46;;;;;;;5.20;1.23;;;19.70;42.40;;;;;;5088700;27;20475;-70
2021/03/12 03:20:14;;;;;;;1.13;0.80;;;19.70;42.40;;;;;;5072450;28;20850;-70
2021/03/12 03:22:41;;;;;;;1.10;1.00;;;19.70;42.30;;;;;;5073325;27;20998;-70
2021/03/12 03:25:08;;;;;;;1.80;1.03;;;19.70;42.30;;;;;;5089133;27;21508;-70
2021/03/12 03:27:34;;;;;;;1.73;1.20;;;19.70;42.20;;;;;;5068799;28;20488;-69
2021/03/12 03:30:01;;;;;;;2.00;1.30;;;19.80;42.30;;;;;;5066724;28;20473;-70
2021/03/12 03:32:27;;;;;;;2.00;0.80;;;19.80;42.30;;;;;;5080824;27;20484;-70
2021/03/12 03:34:53;;;;;;;4.30;1.00;;;19.80;42.40;;;;;;5075381;27;20492;-69
2021/03/12 03:37:20;;;;;;;3.70;1.23;;;19.80;42.30;;;;;;5066442;28;20602;-69
2021/03/12 03:39:46;;;;;;;3.70;0.97;;;19.70;42.30;;;;;;5066046;28;20495;-69
2021/03/12 03:42:12;;;;;;;2.53;1.47;;;19.70;42.30;;;;;;5070048;28;20487;-69
2021/03/12 03:44:39;;;;;;;3.63;1.20;;;19.70;42.30;;;;;;5065540;28;20484;-70
2021/03/12 03:47:06;;;;;;;3.07;0.90;;;19.70;42.30;;;;;;5067248;28;21505;-70
2021/03/12 03:49:34;;;;;;;2.40;1.10;;;19.70;42.30;;;;;;5069531;28;20470;-70
2021/03/12 03:52:00;;;;;;;1.17;0.97;;;19.70;42.20;;;;;;5069195;28;20495;-70
2021/03/12 03:54:27;;;;;;;4.37;1.10;;;19.70;42.20;;;;;;5089540;27;20472;-70
2021/03/12 03:56:54;;;;;;;2.60;1.20;;;19.70;42.20;;;;;;5065955;28;20469;-70
2021/03/12 03:59:20;;;;;;;6.00;1.43;;;19.80;42.20;;;;;;5070610;28;20479;-70
2021/03/12 04:01:46;;;;;;;6.60;1.93;;;19.70;42.20;;;;;;5084341;27;20536;-70
2021/03/12 04:04:12;;;;;;;1.67;1.10;;;19.70;42.10;;;;;;5068562;28;20477;-70
2021/03/12 04:06:39;;;;;;;3.70;1.83;;;19.70;42.10;;;;;;5066935;28;20522;-70
2021/03/12 04:09:05;;;;;;;2.60;1.30;;;19.70;41.90;;;;;;5080152;28;20475;-70
2021/03/12 04:11:34;;;;;;;1.53;1.13;;;19.60;41.60;;;;;;5083057;28;20485;-70
2021/03/12 04:14:00;;;;;;;2.50;1.20;;;19.70;41.50;;;;;;5081417;28;20481;-71
2021/03/12 04:16:26;;;;;;;1.97;1.00;;;19.60;41.30;;;;;;5089574;27;20467;-71
2021/03/12 04:18:53;;;;;;;2.40;1.27;;;19.70;41.10;;;;;;5087353;28;20476;-71
2021/03/12 04:21:19;;;;;;;2.43;0.93;;;19.80;41.10;;;;;;5076482;28;20535;-69
2021/03/12 04:23:45;;;;;;;1.93;1.27;;;19.80;41.10;;;;;;5067456;28;20484;-70
2021/03/12 04:26:11;;;;;;;2.30;1.27;;;19.80;41.00;;;;;;5067252;28;21237;-71
2021/03/12 04:28:38;;;;;;;2.53;1.13;;;19.80;41.00;;;;;;5065345;28;20481;-70
2021/03/12 04:31:05;;;;;;;2.90;1.10;;;19.80;41.00;;;;;;5078679;28;21185;-70
2021/03/12 04:33:31;;;;;;;1.37;1.17;;;19.80;40.90;;;;;;5081181;28;20988;-70
2021/03/12 04:35:57;;;;;;;1.50;1.27;;;19.80;41.10;;;;;;5069286;28;20474;-70
2021/03/12 04:38:23;;;;;;;1.97;1.43;;;19.80;41.10;;;;;;5071856;28;20484;-70
2021/03/12 04:40:50;;;;;;;5.17;1.70;;;19.80;41.10;;;;;;5066216;28;20489;-70
2021/03/12 04:43:16;;;;;;;1.67;0.93;;;19.80;41.30;;;;;;5067069;28;20480;-70
2021/03/12 04:45:43;;;;;;;1.30;1.20;;;19.80;41.20;;;;;;5069893;28;20487;-70
2021/03/12 04:48:09;;;;;;;1.83;1.00;;;19.80;41.20;;;;;;5068631;28;20507;-70
2021/03/12 04:50:36;;;;;;;2.60;1.33;;;19.80;41.20;;;;;;5070037;28;21019;-70
2021/03/12 04:53:02;;;;;;;2.73;1.50;;;19.70;41.20;;;;;;5066264;28;20493;-70
2021/03/12 04:55:28;;;;;;;2.13;1.30;;;19.70;41.10;;;;;;5068014;28;20478;-70
2021/03/12 04:57:54;;;;;;;4.67;1.70;;;19.70;41.20;;;;;;5066782;28;21217;-71
2021/03/12 05:00:21;;;;;;;1.30;1.20;;;19.70;41.20;;;;;;5068751;28;20482;-70
2021/03/12 05:02:48;;;;;;;2.07;1.30;;;19.70;41.10;;;;;;5069181;28;20489;-70
2021/03/12 05:05:15;;;;;;;3.70;1.50;;;19.70;41.20;;;;;;5068615;28;20477;-70
2021/03/12 05:07:41;;;;;;;4.43;1.70;;;19.60;41.10;;;;;;5073142;28;20492;-70
2021/03/12 05:10:08;;;;;;;6.33;1.40;;;19.60;41.20;;;;;;5070152;28;20484;-70
2021/03/12 05:12:34;;;;;;;2.30;1.00;;;19.70;41.30;;;;;;5070623;28;20477;-70
2021/03/12 05:15:00;;;;;;;1.30;1.20;;;19.60;41.20;;;;;;5070823;28;20477;-70
2021/03/12 05:17:27;;;;;;;2.10;0.77;;;19.60;41.10;;;;;;5072519;28;20476;-70
2021/03/12 05:19:54;;;;;;;3.93;1.17;;;19.70;41.30;;;;;;5093382;27;20485;-70
2021/03/12 05:22:20;;;;;;;3.60;1.37;;;19.70;41.30;;;;;;5078325;27;20472;-70
2021/03/12 05:24:46;;;;;;;5.63;1.50;;;19.70;41.10;;;;;;5079640;28;20469;-70
2021/03/12 05:27:13;;;;;;;4.20;1.20;;;19.70;41.00;;;;;;5095296;28;20497;-70
2021/03/12 05:29:39;;;;;;;5.53;1.53;;;19.80;41.00;;;;;;5092612;28;20489;-69
2021/03/12 05:32:06;;;;;;;5.47;1.43;;;19.70;40.90;;;;;;5078731;28;20501;-70
2021/03/12 05:34:32;;;;;;;4.37;1.57;;;19.70;40.80;;;;;;5072559;28;20488;-69
2021/03/12 05:36:59;;;;;;;2.33;1.07;;;19.70;40.80;;;;;;5072202;28;20477;-70
2021/03/12 05:39:25;;;;;;;3.97;1.60;;;19.80;41.00;;;;;;5080950;27;20483;-70
2021/03/12 05:41:51;;;;;;;1.00;0.90;;;19.80;40.80;;;;;;5078255;27;20480;-70
2021/03/12 05:44:18;;;;;;;3.40;1.40;;;19.80;41.00;;;;;;5067235;27;20500;-70
2021/03/12 05:46:44;;;;;;;6.10;1.40;;;19.80;40.90;;;;;;5099943;27;20481;-70
2021/03/12 05:49:11;;;;;;;5.50;1.50;;;19.80;40.90;;;;;;5070759;28;20476;-70
2021/03/12 05:51:37;;;;;;;7.60;1.87;;;19.80;41.00;;;;;;5071450;28;20492;-70
2021/03/12 05:54:05;;;;;;;4.73;1.20;;;19.80;41.00;;;;;;5073163;28;20869;-69
2021/03/12 05:56:32;;;;;;;2.80;1.20;;;19.80;40.90;;;;;;5073681;28;20858;-69
2021/03/12 05:58:58;;;;;;;3.90;1.67;;;19.80;40.90;;;;;;5072243;28;20997;-70
2021/03/12 06:01:24;;;;;;;2.20;1.20;;;19.70;41.00;;;;;;5074679;28;20482;-70
2021/03/12 06:03:51;;;;;;;5.03;1.23;;;19.70;40.90;;;;;;5072466;28;20481;-70
2021/03/12 06:06:17;;;;;;;2.77;1.33;;;19.70;40.90;;;;;;5073027;28;20481;-70
2021/03/12 06:08:43;;;;;;;3.43;1.27;;;19.70;40.70;;;;;;5070897;28;20562;-70
2021/03/12 06:11:10;;;;;;;3.57;1.30;;;19.80;40.70;;;;;;5075613;28;20491;-70
2021/03/12 06:13:48;;;;;;;1.93;1.10;;;19.70;40.60;;;;;;5074181;28;20480;-69
2021/03/12 06:16:21;;;;;;;3.03;1.50;;;19.70;40.60;;;;;;5078228;28;20476;-70
2021/03/12 06:18:51;;;;;;;5.40;1.47;;;19.80;40.60;;;;;;5079051;28;20469;-69
2021/03/12 06:21:27;;;;;;;3.60;1.20;;;19.80;40.60;;;;;;5081770;28;20544;-70
2021/03/12 06:23:53;;;;;;;2.50;1.30;;;19.80;40.50;;;;;;5069670;28;20492;-70
2021/03/12 06:26:20;;;;;;;3.77;1.23;;;19.80;40.20;;;;;;5074849;28;20472;-70
2021/03/12 06:28:47;;;;;;;8.20;1.00;;;19.80;40.20;;;;;;5067696;28;20484;-70
2021/03/12 06:31:25;;;;;;;5.00;1.97;;;19.80;40.30;;;;;;5095942;27;20477;-70
2021/03/12 06:33:52;;;;;;;4.70;1.90;;;19.80;40.30;;;;;;5072319;28;21007;-68
2021/03/12 06:36:28;;;;;;;7.93;1.27;;;19.80;40.50;;;;;;5069529;28;20582;-70
2021/03/12 06:38:56;;;;;;;4.50;1.40;;;19.80;40.50;;;;;;5072822;28;20472;-70
2021/03/12 06:41:36;;;;;;;2.30;1.23;;;19.90;40.50;;;;;;5073150;28;20497;-70
2021/03/12 06:44:24;;;;;;;4.77;2.07;;;19.80;40.30;;;;;;5060904;28;20474;-70
2021/03/12 06:46:50;;;;;;;9.03;1.73;;;19.80;40.10;;;;;;5070043;28;21000;-69
2021/03/12 06:49:16;;;;;;;3.17;1.53;;;19.80;40.10;;;;;;5071812;28;20477;-70
2021/03/12 06:51:56;;;;;;;2.80;1.23;;;19.90;39.90;;;;;;5073395;28;21059;-70
2021/03/12 06:54:23;;;;;;;4.87;1.17;;;19.80;39.80;;;;;;5068966;28;20469;-70
2021/03/12 06:56:50;;;;;;;2.70;1.23;;;19.80;39.70;;;;;;5071139;28;20480;-69
2021/03/12 06:59:25;;;;;;;6.80;1.30;;;19.80;39.80;;;;;;5073065;28;20506;-69
2021/03/12 07:01:57;;;;;;;5.13;1.20;;;19.80;39.60;;;;;;5069837;28;20480;-70
2021/03/12 07:04:23;;;;;;;3.97;2.10;;;19.80;39.60;;;;;;5070694;28;20476;-70
2021/03/12 07:06:49;;;;;;;2.27;1.73;;;19.80;39.60;;;;;;5070738;28;20468;-71
2021/03/12 07:09:15;;;;;;;1.83;1.50;;;19.80;39.70;;;;;;5068627;28;20905;-69
2021/03/12 07:11:42;;;;;;;11.43;1.73;;;19.80;39.90;;;;;;5067553;27;20487;-70
2021/03/12 07:14:09;;;;;;;4.00;1.17;;;19.80;40.00;;;;;;5069633;27;21345;-70
2021/03/12 07:16:35;;;;;;;7.20;1.23;;;19.70;39.80;;;;;;5071815;28;20481;-70
2021/03/12 07:19:01;;;;;;;1.93;1.10;;;19.80;40.40;;;;;;5064495;28;20496;-70
2021/03/12 07:21:28;;;;;;;1.47;1.20;;;19.80;40.40;;;;;;5058512;28;20566;-70
2021/03/12 07:23:57;;;;;;;3.90;1.50;;;19.80;40.20;;;;;;5073818;28;20477;-70
2021/03/12 07:26:24;;;;;;;1.60;1.50;;;19.70;40.30;;;;;;5069050;28;20481;-71
2021/03/12 07:28:53;;;;;;;2.40;1.23;;;19.70;40.50;;;;;;5070695;28;20477;-71
2021/03/12 07:31:20;;;;;;;6.13;1.50;;;19.70;40.60;;;;;;5064757;27;20480;-70
2021/03/12 07:33:49;;;;;;;4.77;2.27;;;19.60;40.60;;;;;;5096744;27;20481;-70
2021/03/12 07:36:17;;;;;;;2.13;1.10;;;19.60;40.60;;;;;;5067497;28;20478;-71
2021/03/12 07:38:43;;;;;;;4.67;1.23;;;19.60;40.70;;;;;;5062847;27;20477;-70
2021/03/12 07:41:09;;;;;;;2.53;1.30;;;19.60;40.60;;;;;;5099766;27;20519;-69
2021/03/12 07:43:37;;;;;;;1.87;1.37;;;19.50;40.60;;;;;;5060335;28;20485;-69
2021/03/12 07:46:03;;;;;;;2.70;1.17;;;19.50;40.70;;;;;;5099077;27;20481;-70
2021/03/12 07:48:31;;;;;;;3.67;1.23;;;19.50;40.80;;;;;;5072628;28;20481;-69
2021/03/12 07:51:05;;;;;;;3.83;1.40;;;19.40;40.70;;;;;;5072756;28;20842;-70
2021/03/12 07:53:47;;;;;;;3.47;1.27;;;19.40;40.70;;;;;;5060226;28;20497;-70
2021/03/12 07:56:14;;;;;;;3.03;1.30;;;19.50;40.70;;;;;;5070722;28;21352;-70
2021/03/12 07:58:57;;;;;;;3.83;1.50;;;19.50;40.70;;;;;;5071084;28;20480;-70
2021/03/12 08:01:24;;;;;;;2.13;1.30;;;19.30;40.80;;;;;;5069436;28;20480;-70
2021/03/12 08:03:51;;;;;;;6.57;1.80;;;19.30;40.90;;;;;;5070591;28;20525;-70
2021/03/12 08:06:36;;;;;;;5.43;1.57;;;19.30;40.80;;;;;;5068647;28;20480;-70
2021/03/12 08:09:03;;;;;;;2.77;1.43;;;19.30;40.70;;;;;;5057751;28;20481;-70
2021/03/12 08:11:33;;;;;;;3.57;1.67;;;19.30;40.80;;;;;;5059461;28;20477;-70
2021/03/12 08:14:13;;;;;;;3.57;1.43;;;19.30;41.00;;;;;;5054402;28;20480;-68
2021/03/12 08:17:13;;;;;;;3.80;1.47;;;19.20;40.90;;;;;;5060641;27;20924;-70
2021/03/12 08:19:41;;;;;;;2.43;1.13;;;19.20;41.20;;;;;;5070430;28;20554;-70
2021/03/12 08:22:42;;;;;;;5.27;1.47;;;19.20;41.00;;;;;;5070612;28;20541;-70
2021/03/12 08:25:10;;;;;;;1.10;1.10;;;19.30;41.20;;;;;;5072193;28;20893;-70
2021/03/12 08:27:37;;;;;;;1.70;1.03;;;19.30;41.00;;;;;;5069662;28;20785;-70
2021/03/12 08:30:04;;;;;;;1.37;1.10;;;19.30;40.80;;;;;;5068654;28;20508;-70
2021/03/12 08:32:40;;;;;;;1.40;1.00;;;19.30;41.00;;;;;;5067693;28;20477;-70
2021/03/12 08:35:39;;;;;;;1.63;1.13;;;19.30;40.60;;;;;;5067610;28;20464;-70
2021/03/12 08:38:06;;;;;;;4.63;1.20;;;19.30;40.60;;;;;;5065592;28;20480;-69
2021/03/12 08:40:32;;;;;;;5.30;1.13;;;19.30;40.80;;;;;;5070880;28;20473;-70
2021/03/12 08:43:00;;;;;;;1.13;0.97;;;19.30;40.80;;;;;;5068888;27;20491;-69
2021/03/12 08:45:39;;;;;;;2.90;1.13;;;19.30;40.80;;;;;;5099250;27;20501;-70
2021/03/12 08:48:06;;;;;;;1.37;1.27;;;19.30;40.60;;;;;;5058473;28;20473;-70
2021/03/12 08:50:34;;;;;;;2.50;1.10;;;19.40;40.60;;;;;;5073030;28;20485;-70
2021/03/12 08:53:00;;;;;;;1.70;1.17;;;19.50;40.50;;;;;;5060519;28;20482;-69
2021/03/12 08:55:26;;;;;;;1.33;0.83;;;19.40;40.50;;;;;;5073206;28;20489;-71
2021/03/12 08:58:12;;;;;;;3.57;1.37;;;19.50;40.60;;;;;;5070788;28;20481;-70
2021/03/12 09:00:38;;;;;;;2.57;1.33;;;19.50;40.60;;;;;;5071841;28;21043;-71
2021/03/12 09:03:18;;;;;;;3.63;1.70;;;19.50;40.90;;;;;;5072526;28;20485;-70
2021/03/12 09:05:46;;;;;;;4.40;1.10;;;19.50;41.00;;;;;;5084859;28;20481;-70
2021/03/12 09:08:13;;;;;;;1.67;1.00;;;19.50;40.90;;;;;;5087679;27;20491;-71
2021/03/12 09:10:40;;;;;;;3.10;1.30;;;19.50;40.90;;;;;;5106886;27;20477;-70
2021/03/12 09:13:12;;;;;;;4.60;1.10;;;19.60;40.90;;;;;;5070395;27;20483;-69
2021/03/12 09:15:39;;;;;;;4.60;1.17;;;19.50;40.70;;;;;;5093505;27;20512;-70
2021/03/12 09:18:05;;;;;;;3.20;1.10;;;19.50;40.80;;;;;;5066951;27;20476;-70
2021/03/12 09:20:31;;;;;;;1.50;0.80;;;19.50;40.80;;;;;;5089432;27;20488;-69
2021/03/12 09:22:58;;;;;;;1.47;0.80;;;19.60;40.80;;;;;;5095859;27;20537;-70
2021/03/12 09:25:26;;;;;;;4.40;0.93;;;19.60;40.60;;;;;;5073974;28;20488;-71
2021/03/12 09:28:03;;;;;;;7.13;1.50;;;19.60;40.80;;;;;;5071324;28;20481;-71
2021/03/12 09:30:31;;;;;;;1.23;0.70;;;19.60;40.90;;;;;;5072443;28;20473;-71
2021/03/12 09:32:57;;;;;;;1.63;0.70;;;19.60;40.90;;;;;;5068971;28;20549;-71
2021/03/12 09:35:25;;;;;;;1.23;0.70;;;19.60;40.70;;;;;;5072922;28;21008;-70
2021/03/12 09:37:51;;;;;;;1.83;0.70;;;19.60;40.90;;;;;;5072424;28;20492;-71
2021/03/12 09:40:29;;;;;;;1.23;1.20;;;19.50;40.80;;;;;;5072542;28;20502;-70
2021/03/12 09:42:55;;;;;;;3.00;1.53;;;19.60;40.80;;;;;;5069030;28;20480;-71
2021/03/12 09:45:21;;;;;;;2.93;1.13;;;19.60;40.80;;;;;;5072999;28;20974;-71
2021/03/12 09:47:49;;;;;;;1.20;1.13;;;19.50;40.80;;;;;;5071896;28;20484;-71
2021/03/12 09:50:15;;;;;;;2.17;0.97;;;19.60;40.80;;;;;;5073089;28;20473;-71
2021/03/12 09:52:41;;;;;;;6.50;1.80;;;19.60;40.70;;;;;;5072072;28;20519;-71
2021/03/12 09:55:08;;;;;;;1.27;0.90;;;19.50;40.80;;;;;;5070671;28;20485;-71
2021/03/12 09:57:36;;;;;;;1.80;1.03;;;19.50;40.80;;;;;;5073621;28;20898;-71
2021/03/12 10:00:03;;;;;;;4.37;1.03;;;19.60;40.90;;;;;;5072034;27;20532;-69
2021/03/12 10:02:29;;;;;;;1.17;0.90;;;19.60;40.90;;;;;;5067454;27;20486;-70
2021/03/12 10:04:56;;;;;;;2.47;1.43;;;19.60;40.80;;;;;;5095320;27;20488;-71
2021/03/12 10:07:22;;;;;;;2.97;1.10;;;19.60;40.80;;;;;;5073490;28;20505;-69
2021/03/12 10:09:49;;;;;;;3.63;1.47;;;19.60;40.80;;;;;;5071854;28;20481;-70
2021/03/12 10:12:16;;;;;;;3.30;1.23;;;19.60;40.70;;;;;;5071991;28;20485;-71
2021/03/12 10:14:44;;;;;;;2.03;0.80;;;19.60;40.60;;;;;;5072523;28;20516;-71
2021/03/12 10:17:17;;;;;;;1.73;0.90;;;19.70;40.50;;;;;;5073590;28;20493;-70
2021/03/12 10:19:50;;;;;;;2.00;0.80;;;19.70;40.50;;;;;;5073078;28;20959;-71
2021/03/12 10:22:17;;;;;;;3.47;0.90;;;19.70;40.30;;;;;;5071152;28;20541;-71
2021/03/12 10:24:46;;;;;;;5.93;1.00;;;19.70;40.30;;;;;;5072108;28;20911;-71
2021/03/12 10:27:17;;;;;;;2.87;0.97;;;19.80;40.10;;;;;;5074213;28;20953;-71
2021/03/12 10:29:44;;;;;;;5.80;0.80;;;19.80;40.10;;;;;;5067469;28;20480;-71
2021/03/12 10:32:11;;;;;;;2.50;0.90;;;19.80;40.00;;;;;;5065679;27;20491;-70
2021/03/12 10:34:44;;;;;;;3.10;2.07;;;19.90;40.10;;;;;;5077832;28;20495;-71
2021/03/12 10:37:12;;;;;;;1.40;1.10;;;19.90;40.00;;;;;;5071604;28;20524;-70
2021/03/12 10:39:45;;;;;;;2.00;1.30;;;19.90;40.00;;;;;;5071115;28;20534;-70
2021/03/12 10:42:12;;;;;;;4.37;1.20;;;19.90;40.00;;;;;;5071190;28;20488;-71
2021/03/12 10:44:49;;;;;;;1.77;1.07;;;19.90;40.00;;;;;;5073505;28;20485;-71
2021/03/12 10:47:15;;;;;;;1.37;1.00;;;19.90;40.00;;;;;;5064914;27;20504;-70
2021/03/12 10:49:42;;;;;;;1.73;1.00;;;19.90;40.10;;;;;;5083277;28;20481;-70
2021/03/12 10:52:08;;;;;;;1.27;1.17;;;19.90;40.00;;;;;;5071062;28;20481;-70
2021/03/12 10:54:34;;;;;;;4.73;1.57;;;19.90;40.20;;;;;;5070438;28;20484;-70
2021/03/12 10:57:01;;;;;;;2.93;1.30;;;19.90;40.10;;;;;;5067898;28;21921;-71
2021/03/12 10:59:27;;;;;;;1.57;0.80;;;19.90;40.10;;;;;;5092166;27;20477;-71
2021/03/12 11:01:54;;;;;;;3.30;1.00;;;20.00;40.10;;;;;;5069760;28;20472;-71
2021/03/12 11:04:22;;;;;;;1.93;1.53;;;19.90;40.10;;;;;;5069779;28;20477;-71
2021/03/12 11:06:49;;;;;;;3.57;0.90;;;19.90;40.10;;;;;;5074971;27;21098;-70
2021/03/12 11:09:15;;;;;;;2.63;1.20;;;19.90;40.00;;;;;;5090422;27;20497;-71
2021/03/12 11:11:43;;;;;;;2.40;0.90;;;19.90;40.10;;;;;;5073592;28;20473;-71
2021/03/12 11:14:10;;;;;;;2.80;0.80;;;19.90;40.20;;;;;;5068538;28;20481;-70
2021/03/12 11:16:36;;;;;;;1.50;0.80;;;20.00;40.30;;;;;;5069800;28;20497;-70
2021/03/12 11:19:03;;;;;;;1.63;0.90;;;20.00;40.10;;;;;;5070788;28;20472;-71
2021/03/12 11:21:30;;;;;;;4.30;1.43;;;20.00;40.00;;;;;;5071674;28;20513;-69
2021/03/12 11:23:56;;;;;;;1.00;0.90;;;20.00;40.00;;;;;;5074574;28;20471;-70
2021/03/12 11:26:23;;;;;;;3.00;1.40;;;20.00;40.10;;;;;;5070076;28;21062;-71
2021/03/12 11:28:50;;;;;;;1.10;1.00;;;20.00;40.10;;;;;;5069113;28;20553;-70
2021/03/12 11:31:18;;;;;;;5.30;1.30;;;20.00;40.10;;;;;;5069754;28;21109;-71
2021/03/12 11:33:44;;;;;;;1.37;1.00;;;19.90;40.20;;;;;;5073678;28;20509;-71
2021/03/12 11:36:11;;;;;;;2.03;1.63;;;20.00;40.30;;;;;;5062790;28;20485;-71
2021/03/12 11:38:38;;;;;;;3.47;1.60;;;20.00;40.20;;;;;;5099379;27;20465;-71
2021/03/12 11:41:04;;;;;;;3.20;0.97;;;20.00;40.00;;;;;;5072393;28;20485;-70
2021/03/12 11:43:30;;;;;;;1.10;1.00;;;20.00;40.10;;;;;;5067203;28;20485;-71
2021/03/12 11:45:56;;;;;;;2.40;1.60;;;20.00;40.10;;;;;;5070943;28;20479;-70
2021/03/12 11:48:23;;;;;;;1.97;1.20;;;20.00;40.20;;;;;;5080190;27;20483;-71
2021/03/12 11:50:49;;;;;;;1.00;0.90;;;20.00;40.20;;;;;;5083698;27;21560;-70
2021/03/12 11:53:16;;;;;;;1.87;1.17;;;20.00;40.30;;;;;;5067862;28;20996;-71
2021/03/12 11:55:44;;;;;;;2.17;1.20;;;20.00;40.30;;;;;;5092908;27;21380;-71
2021/03/12 11:58:11;;;;;;;1.27;1.00;;;19.90;40.20;;;;;;5088882;27;20500;-72
2021/03/12 12:00:37;;;;;;;1.87;1.00;;;19.90;40.40;;;;;;5072266;28;20481;-71
2021/03/12 12:03:04;;;;;;;1.20;0.93;;;19.80;40.30;;;;;;5066563;28;20492;-70
2021/03/12 12:05:30;;;;;;;1.93;0.80;;;19.90;40.40;;;;;;5071981;28;20509;-70
2021/03/12 12:07:56;;;;;;;2.40;1.40;;;19.80;40.20;;;;;;5076713;28;20669;-70
2021/03/12 12:10:24;;;;;;;2.87;1.27;;;19.80;40.10;;;;;;5070391;28;20491;-70
2021/03/12 12:12:55;;;;;;;3.30;1.00;;;19.80;40.20;;;;;;5070986;28;20473;-70
2021/03/12 12:15:21;;;;;;;1.97;1.00;;;19.90;40.50;;;;;;5069065;28;20899;-69
2021/03/12 12:17:48;;;;;;;1.90;0.90;;;19.90;40.40;;;;;;5070026;28;20482;-71
2021/03/12 12:20:14;;;;;;;1.27;0.83;;;19.90;40.30;;;;;;5069212;28;21047;-71
2021/03/12 12:22:40;;;;;;;1.33;0.80;;;19.90;40.50;;;;;;5071864;28;20488;-72
2021/03/12 12:25:08;;;;;;;1.33;0.83;;;19.90;40.40;;;;;;5070555;28;20483;-71
2021/03/12 12:27:35;;;;;;;2.03;0.90;;;19.80;40.30;;;;;;5068567;28;20479;-71
2021/03/12 12:30:01;;;;;;;0.80;0.80;;;19.80;40.30;;;;;;5069870;28;20474;-70
2021/03/12 12:32:27;;;;;;;2.67;1.10;;;19.80;40.40;;;;;;5079518;28;20478;-71
2021/03/12 12:34:54;;;;;;;2.77;1.03;;;19.80;40.40;;;;;;5076389;28;20477;-71
2021/03/12 12:37:20;;;;;;;1.83;0.73;;;19.80;40.30;;;;;;5083341;28;21166;-71
2021/03/12 12:39:46;;;;;;;1.47;0.83;;;19.80;40.50;;;;;;5073717;28;20469;-70
2021/03/12 12:42:13;;;;;;;1.30;0.90;;;19.80;40.40;;;;;;5069913;28;20486;-70
2021/03/12 12:44:40;;;;;;;0.90;0.83;;;19.80;40.20;;;;;;5071360;28;21342;-71
2021/03/12 12:47:07;;;;;;;1.37;1.03;;;19.80;40.30;;;;;;5070856;28;20989;-71
2021/03/12 12:49:33;;;;;;;1.17;0.70;;;19.80;40.30;;;;;;5069775;28;21039;-71
2021/03/12 12:51:59;;;;;;;3.50;0.90;;;19.80;40.40;;;;;;5069432;28;20609;-71